sensor_id;sensor_type;location;lat;lon;timestamp;P1;P2;P0
77699;PMS5003;66867;42.658;23.320;2023-05-01T00:00:00;21;21;
77699;PMS5003;66867;42.658;23.320;2023-05-01T00:01:00;20;20;
77699;PMS5003;66867;42.658;23.320;2023-05-01T00:02:00;21;20;
77699;PMS5003;66867;42.658;23.320;2023-05-01T00:03:00;22;22;
77699;PMS5003;66867;42.658;23.320;2023-05-01T00:04:00;19;19;
77699;PMS5003;66867;42.658;23.320;2023-05-01T00:05:01;25;24;
77699;PMS5003;66867;42.658;23.320;2023-05-01T00:06:02;25;25;
77699;PMS5003;66867;42.658;23.320;2023-05-01T00:07:00;20;20;
77699;PMS5003;66867;42.658;23.320;2023-05-01T00:08:00;23;22;
77699;PMS5003;66867;42.658;23.320;2023-05-01T00:09:01;22;22;
77699;PMS5003;66867;42.658;23.320;2023-05-01T00:10:00;20;20;
77699;PMS5003;66867;42.658;23.320;2023-05-01T00:11:04;19;19;
77699;PMS5003;66867;42.658;23.320;2023-05-01T00:12:00;22;22;
77699;PMS5003;66867;42.658;23.320;2023-05-01T00:13:00;22;19;
77699;PMS5003;66867;42.658;23.320;2023-05-01T00:14:00;21;21;
77699;PMS5003;66867;42.658;23.320;2023-05-01T00:15:00;25;25;
77699;PMS5003;66867;42.658;23.320;2023-05-01T00:16:00;23;23;
77699;PMS5003;66867;42.658;23.320;2023-05-01T00:17:00;22;22;
77699;PMS5003;66867;42.658;23.320;2023-05-01T00:18:00;22;22;
77699;PMS5003;66867;42.658;23.320;2023-05-01T00:19:00;22;22;
77699;PMS5003;66867;42.658;23.320;2023-05-01T00:20:00;24;24;
77699;PMS5003;66867;42.658;23.320;2023-05-01T00:21:00;22;22;
77699;PMS5003;66867;42.658;23.320;2023-05-01T00:22:00;19;19;
77699;PMS5003;66867;42.658;23.320;2023-05-01T00:23:00;22;22;
77699;PMS5003;66867;42.658;23.320;2023-05-01T00:24:00;24;24;
77699;PMS5003;66867;42.658;23.320;2023-05-01T00:25:00;22;22;
77699;PMS5003;66867;42.658;23.320;2023-05-01T00:26:00;23;23;
77699;PMS5003;66867;42.658;23.320;2023-05-01T00:27:00;21;21;
77699;PMS5003;66867;42.658;23.320;2023-05-01T00:28:00;24;22;
77699;PMS5003;66867;42.658;23.320;2023-05-01T00:29:00;24;23;
77699;PMS5003;66867;42.658;23.320;2023-05-01T00:30:00;23;23;
77699;PMS5003;66867;42.658;23.320;2023-05-01T00:31:00;25;24;
77699;PMS5003;66867;42.658;23.320;2023-05-01T00:32:00;22;22;
77699;PMS5003;66867;42.658;23.320;2023-05-01T00:33:00;23;22;
77699;PMS5003;66867;42.658;23.320;2023-05-01T00:34:00;24;24;
77699;PMS5003;66867;42.658;23.320;2023-05-01T00:35:00;25;25;
77699;PMS5003;66867;42.658;23.320;2023-05-01T00:36:00;24;24;
77699;PMS5003;66867;42.658;23.320;2023-05-01T00:37:00;23;23;
77699;PMS5003;66867;42.658;23.320;2023-05-01T00:38:00;23;23;
77699;PMS5003;66867;42.658;23.320;2023-05-01T00:39:00;26;26;
77699;PMS5003;66867;42.658;23.320;2023-05-01T00:40:00;25;24;
77699;PMS5003;66867;42.658;23.320;2023-05-01T00:41:00;24;24;
77699;PMS5003;66867;42.658;23.320;2023-05-01T00:42:00;24;24;
77699;PMS5003;66867;42.658;23.320;2023-05-01T00:43:00;25;25;
77699;PMS5003;66867;42.658;23.320;2023-05-01T00:44:00;24;24;
77699;PMS5003;66867;42.658;23.320;2023-05-01T00:45:00;24;24;
77699;PMS5003;66867;42.658;23.320;2023-05-01T00:46:00;25;24;
77699;PMS5003;66867;42.658;23.320;2023-05-01T00:47:00;25;25;
77699;PMS5003;66867;42.658;23.320;2023-05-01T00:48:00;24;24;
77699;PMS5003;66867;42.658;23.320;2023-05-01T00:49:00;25;25;
77699;PMS5003;66867;42.658;23.320;2023-05-01T00:50:00;25;25;
77699;PMS5003;66867;42.658;23.320;2023-05-01T00:51:02;25;23;
77699;PMS5003;66867;42.658;23.320;2023-05-01T00:52:00;24;24;
77699;PMS5003;66867;42.658;23.320;2023-05-01T00:53:01;21;20;
77699;PMS5003;66867;42.658;23.320;2023-05-01T00:54:01;23;22;
77699;PMS5003;66867;42.658;23.320;2023-05-01T00:55:00;27;26;
77699;PMS5003;66867;42.658;23.320;2023-05-01T00:56:00;20;20;
77699;PMS5003;66867;42.658;23.320;2023-05-01T00:57:01;24;24;
77699;PMS5003;66867;42.658;23.320;2023-05-01T00:58:00;22;22;
77699;PMS5003;66867;42.658;23.320;2023-05-01T00:59:00;27;26;
77699;PMS5003;66867;42.658;23.320;2023-05-01T01:00:00;24;23;
77699;PMS5003;66867;42.658;23.320;2023-05-01T01:01:00;28;28;
77699;PMS5003;66867;42.658;23.320;2023-05-01T01:02:00;22;22;
77699;PMS5003;66867;42.658;23.320;2023-05-01T01:03:00;24;23;
77699;PMS5003;66867;42.658;23.320;2023-05-01T01:04:00;24;24;
77699;PMS5003;66867;42.658;23.320;2023-05-01T01:05:00;24;23;
77699;PMS5003;66867;42.658;23.320;2023-05-01T01:06:06;23;23;
77699;PMS5003;66867;42.658;23.320;2023-05-01T01:07:07;25;25;
77699;PMS5003;66867;42.658;23.320;2023-05-01T01:08:09;25;25;
77699;PMS5003;66867;42.658;23.320;2023-05-01T01:11:07;24;24;
77699;PMS5003;66867;42.658;23.320;2023-05-01T01:13:09;22;22;
77699;PMS5003;66867;42.658;23.320;2023-05-01T01:14:14;24;24;
77699;PMS5003;66867;42.658;23.320;2023-05-01T01:16:10;24;23;
77699;PMS5003;66867;42.658;23.320;2023-05-01T01:17:10;23;23;
77699;PMS5003;66867;42.658;23.320;2023-05-01T01:18:08;20;20;
77699;PMS5003;66867;42.658;23.320;2023-05-01T01:19:05;23;23;
77699;PMS5003;66867;42.658;23.320;2023-05-01T01:21:11;22;22;
77699;PMS5003;66867;42.658;23.320;2023-05-01T01:22:06;26;26;
77699;PMS5003;66867;42.658;23.320;2023-05-01T01:23:17;23;22;
77699;PMS5003;66867;42.658;23.320;2023-05-01T01:28:10;23;23;
77699;PMS5003;66867;42.658;23.320;2023-05-01T01:34:07;28;27;
77699;PMS5003;66867;42.658;23.320;2023-05-01T01:35:03;28;26;
77699;PMS5003;66867;42.658;23.320;2023-05-01T01:36:05;24;24;
77699;PMS5003;66867;42.658;23.320;2023-05-01T01:37:10;28;28;
77699;PMS5003;66867;42.658;23.320;2023-05-01T01:38:04;24;24;
77699;PMS5003;66867;42.658;23.320;2023-05-01T01:39:04;24;24;
77699;PMS5003;66867;42.658;23.320;2023-05-01T01:40:05;23;23;
77699;PMS5003;66867;42.658;23.320;2023-05-01T01:41:06;26;26;
77699;PMS5003;66867;42.658;23.320;2023-05-01T01:42:02;27;26;
77699;PMS5003;66867;42.658;23.320;2023-05-01T01:43:04;22;22;
77699;PMS5003;66867;42.658;23.320;2023-05-01T01:44:07;25;24;
77699;PMS5003;66867;42.658;23.320;2023-05-01T01:45:04;24;24;
77699;PMS5003;66867;42.658;23.320;2023-05-01T01:46:02;24;23;
77699;PMS5003;66867;42.658;23.320;2023-05-01T01:47:04;26;25;
77699;PMS5003;66867;42.658;23.320;2023-05-01T01:48:01;25;24;
77699;PMS5003;66867;42.658;23.320;2023-05-01T01:49:01;25;25;
77699;PMS5003;66867;42.658;23.320;2023-05-01T01:50:05;24;24;
77699;PMS5003;66867;42.658;23.320;2023-05-01T01:51:05;26;25;
77699;PMS5003;66867;42.658;23.320;2023-05-01T01:52:01;25;25;
77699;PMS5003;66867;42.658;23.320;2023-05-01T01:53:01;23;22;
77699;PMS5003;66867;42.658;23.320;2023-05-01T01:54:01;24;24;
77699;PMS5003;66867;42.658;23.320;2023-05-01T01:55:05;27;27;
77699;PMS5003;66867;42.658;23.320;2023-05-01T01:56:01;25;24;
77699;PMS5003;66867;42.658;23.320;2023-05-01T01:57:01;24;24;
77699;PMS5003;66867;42.658;23.320;2023-05-01T01:58:01;22;22;
77699;PMS5003;66867;42.658;23.320;2023-05-01T01:59:00;24;23;
77699;PMS5003;66867;42.658;23.320;2023-05-01T02:00:00;25;25;
77699;PMS5003;66867;42.658;23.320;2023-05-01T02:01:00;26;25;
77699;PMS5003;66867;42.658;23.320;2023-05-01T02:02:01;26;26;
77699;PMS5003;66867;42.658;23.320;2023-05-01T02:03:01;26;25;
77699;PMS5003;66867;42.658;23.320;2023-05-01T02:04:00;28;26;
77699;PMS5003;66867;42.658;23.320;2023-05-01T02:05:00;26;25;
77699;PMS5003;66867;42.658;23.320;2023-05-01T02:06:01;25;25;
77699;PMS5003;66867;42.658;23.320;2023-05-01T02:07:00;29;29;
77699;PMS5003;66867;42.658;23.320;2023-05-01T02:08:01;27;26;
77699;PMS5003;66867;42.658;23.320;2023-05-01T02:09:01;25;24;
77699;PMS5003;66867;42.658;23.320;2023-05-01T02:10:01;25;25;
77699;PMS5003;66867;42.658;23.320;2023-05-01T02:11:01;28;28;
77699;PMS5003;66867;42.658;23.320;2023-05-01T02:12:01;28;26;
77699;PMS5003;66867;42.658;23.320;2023-05-01T02:13:00;25;25;
77699;PMS5003;66867;42.658;23.320;2023-05-01T02:14:00;28;25;
77699;PMS5003;66867;42.658;23.320;2023-05-01T02:15:00;27;27;
77699;PMS5003;66867;42.658;23.320;2023-05-01T02:16:02;30;30;
77699;PMS5003;66867;42.658;23.320;2023-05-01T02:17:01;29;28;
77699;PMS5003;66867;42.658;23.320;2023-05-01T02:18:02;28;28;
77699;PMS5003;66867;42.658;23.320;2023-05-01T02:19:01;27;25;
77699;PMS5003;66867;42.658;23.320;2023-05-01T02:20:01;28;28;
77699;PMS5003;66867;42.658;23.320;2023-05-01T02:21:02;29;29;
77699;PMS5003;66867;42.658;23.320;2023-05-01T02:22:01;30;30;
77699;PMS5003;66867;42.658;23.320;2023-05-01T02:23:01;31;31;
77699;PMS5003;66867;42.658;23.320;2023-05-01T02:24:00;32;31;
77699;PMS5003;66867;42.658;23.320;2023-05-01T02:25:01;29;28;
77699;PMS5003;66867;42.658;23.320;2023-05-01T02:26:02;30;29;
77699;PMS5003;66867;42.658;23.320;2023-05-01T02:27:03;30;30;
77699;PMS5003;66867;42.658;23.320;2023-05-01T02:28:05;29;29;
77699;PMS5003;66867;42.658;23.320;2023-05-01T02:29:00;28;28;
77699;PMS5003;66867;42.658;23.320;2023-05-01T02:30:00;27;26;
77699;PMS5003;66867;42.658;23.320;2023-05-01T02:31:00;30;29;
77699;PMS5003;66867;42.658;23.320;2023-05-01T02:32:00;28;28;
77699;PMS5003;66867;42.658;23.320;2023-05-01T02:33:00;29;28;
77699;PMS5003;66867;42.658;23.320;2023-05-01T02:34:00;31;28;
77699;PMS5003;66867;42.658;23.320;2023-05-01T02:35:00;31;30;
77699;PMS5003;66867;42.658;23.320;2023-05-01T02:36:00;27;27;
77699;PMS5003;66867;42.658;23.320;2023-05-01T02:37:01;31;30;
77699;PMS5003;66867;42.658;23.320;2023-05-01T02:38:00;25;25;
77699;PMS5003;66867;42.658;23.320;2023-05-01T02:39:00;32;29;
77699;PMS5003;66867;42.658;23.320;2023-05-01T02:40:01;31;30;
77699;PMS5003;66867;42.658;23.320;2023-05-01T02:41:01;29;29;
77699;PMS5003;66867;42.658;23.320;2023-05-01T02:42:00;27;27;
77699;PMS5003;66867;42.658;23.320;2023-05-01T02:45:03;27;26;
77699;PMS5003;66867;42.658;23.320;2023-05-01T02:46:01;30;29;
77699;PMS5003;66867;42.658;23.320;2023-05-01T02:47:01;31;30;
77699;PMS5003;66867;42.658;23.320;2023-05-01T02:48:00;28;28;
77699;PMS5003;66867;42.658;23.320;2023-05-01T02:49:01;28;28;
77699;PMS5003;66867;42.658;23.320;2023-05-01T02:50:00;32;32;
77699;PMS5003;66867;42.658;23.320;2023-05-01T02:51:01;32;31;
77699;PMS5003;66867;42.658;23.320;2023-05-01T02:52:01;28;28;
77699;PMS5003;66867;42.658;23.320;2023-05-01T02:53:00;30;30;
77699;PMS5003;66867;42.658;23.320;2023-05-01T02:54:00;31;30;
77699;PMS5003;66867;42.658;23.320;2023-05-01T02:55:00;32;32;
77699;PMS5003;66867;42.658;23.320;2023-05-01T02:56:01;33;33;
77699;PMS5003;66867;42.658;23.320;2023-05-01T02:57:03;34;32;
77699;PMS5003;66867;42.658;23.320;2023-05-01T02:58:00;34;33;
77699;PMS5003;66867;42.658;23.320;2023-05-01T02:59:00;32;31;
77699;PMS5003;66867;42.658;23.320;2023-05-01T03:00:00;31;30;
77699;PMS5003;66867;42.658;23.320;2023-05-01T03:01:00;28;28;
77699;PMS5003;66867;42.658;23.320;2023-05-01T03:02:00;31;30;
77699;PMS5003;66867;42.658;23.320;2023-05-01T03:03:00;34;33;
77699;PMS5003;66867;42.658;23.320;2023-05-01T03:04:00;31;31;
77699;PMS5003;66867;42.658;23.320;2023-05-01T03:05:00;35;34;
77699;PMS5003;66867;42.658;23.320;2023-05-01T03:06:00;35;34;
77699;PMS5003;66867;42.658;23.320;2023-05-01T03:07:00;32;31;
77699;PMS5003;66867;42.658;23.320;2023-05-01T03:08:00;31;30;
77699;PMS5003;66867;42.658;23.320;2023-05-01T03:09:00;34;31;
77699;PMS5003;66867;42.658;23.320;2023-05-01T03:10:02;35;34;
77699;PMS5003;66867;42.658;23.320;2023-05-01T03:11:03;30;30;
77699;PMS5003;66867;42.658;23.320;2023-05-01T03:12:00;29;29;
77699;PMS5003;66867;42.658;23.320;2023-05-01T03:13:00;32;32;
77699;PMS5003;66867;42.658;23.320;2023-05-01T03:14:00;32;31;
77699;PMS5003;66867;42.658;23.320;2023-05-01T03:15:00;35;34;
77699;PMS5003;66867;42.658;23.320;2023-05-01T03:16:01;31;30;
77699;PMS5003;66867;42.658;23.320;2023-05-01T03:17:00;35;32;
77699;PMS5003;66867;42.658;23.320;2023-05-01T03:18:00;36;35;
77699;PMS5003;66867;42.658;23.320;2023-05-01T03:19:00;39;36;
77699;PMS5003;66867;42.658;23.320;2023-05-01T03:20:00;38;36;
77699;PMS5003;66867;42.658;23.320;2023-05-01T03:21:00;35;34;
77699;PMS5003;66867;42.658;23.320;2023-05-01T03:22:00;40;36;
77699;PMS5003;66867;42.658;23.320;2023-05-01T03:23:00;38;35;
77699;PMS5003;66867;42.658;23.320;2023-05-01T03:24:00;36;34;
77699;PMS5003;66867;42.658;23.320;2023-05-01T03:25:00;40;37;
77699;PMS5003;66867;42.658;23.320;2023-05-01T03:26:00;39;35;
77699;PMS5003;66867;42.658;23.320;2023-05-01T03:27:00;38;35;
77699;PMS5003;66867;42.658;23.320;2023-05-01T03:28:00;35;32;
77699;PMS5003;66867;42.658;23.320;2023-05-01T03:29:00;34;32;
77699;PMS5003;66867;42.658;23.320;2023-05-01T03:30:00;42;35;
77699;PMS5003;66867;42.658;23.320;2023-05-01T03:31:00;38;35;
77699;PMS5003;66867;42.658;23.320;2023-05-01T03:32:00;35;34;
77699;PMS5003;66867;42.658;23.320;2023-05-01T03:33:01;41;35;
77699;PMS5003;66867;42.658;23.320;2023-05-01T03:34:00;40;36;
77699;PMS5003;66867;42.658;23.320;2023-05-01T03:35:00;40;36;
77699;PMS5003;66867;42.658;23.320;2023-05-01T03:36:02;40;36;
77699;PMS5003;66867;42.658;23.320;2023-05-01T03:37:00;44;38;
77699;PMS5003;66867;42.658;23.320;2023-05-01T03:38:00;46;38;
77699;PMS5003;66867;42.658;23.320;2023-05-01T03:39:00;44;38;
77699;PMS5003;66867;42.658;23.320;2023-05-01T03:40:00;42;36;
77699;PMS5003;66867;42.658;23.320;2023-05-01T03:41:00;46;41;
77699;PMS5003;66867;42.658;23.320;2023-05-01T03:42:00;44;39;
77699;PMS5003;66867;42.658;23.320;2023-05-01T03:43:00;45;38;
77699;PMS5003;66867;42.658;23.320;2023-05-01T03:44:00;39;36;
77699;PMS5003;66867;42.658;23.320;2023-05-01T03:45:00;45;39;
77699;PMS5003;66867;42.658;23.320;2023-05-01T03:46:00;49;42;
77699;PMS5003;66867;42.658;23.320;2023-05-01T03:47:00;49;41;
77699;PMS5003;66867;42.658;23.320;2023-05-01T03:48:00;49;42;
77699;PMS5003;66867;42.658;23.320;2023-05-01T03:49:00;45;39;
77699;PMS5003;66867;42.658;23.320;2023-05-01T03:50:00;45;39;
77699;PMS5003;66867;42.658;23.320;2023-05-01T03:51:00;46;40;
77699;PMS5003;66867;42.658;23.320;2023-05-01T03:52:00;50;43;
77699;PMS5003;66867;42.658;23.320;2023-05-01T03:53:00;50;43;
77699;PMS5003;66867;42.658;23.320;2023-05-01T03:54:00;54;43;
77699;PMS5003;66867;42.658;23.320;2023-05-01T03:55:00;46;40;
77699;PMS5003;66867;42.658;23.320;2023-05-01T03:56:00;48;42;
77699;PMS5003;66867;42.658;23.320;2023-05-01T03:57:00;49;42;
77699;PMS5003;66867;42.658;23.320;2023-05-01T03:58:00;49;42;
77699;PMS5003;66867;42.658;23.320;2023-05-01T03:59:00;52;44;
77699;PMS5003;66867;42.658;23.320;2023-05-01T04:00:00;48;39;
77699;PMS5003;66867;42.658;23.320;2023-05-01T04:01:02;53;44;
77699;PMS5003;66867;42.658;23.320;2023-05-01T04:02:00;49;42;
77699;PMS5003;66867;42.658;23.320;2023-05-01T04:03:00;50;40;
77699;PMS5003;66867;42.658;23.320;2023-05-01T04:04:00;49;42;
77699;PMS5003;66867;42.658;23.320;2023-05-01T04:05:00;44;37;
77699;PMS5003;66867;42.658;23.320;2023-05-01T04:06:00;46;40;
77699;PMS5003;66867;42.658;23.320;2023-05-01T04:07:00;51;44;
77699;PMS5003;66867;42.658;23.320;2023-05-01T04:08:00;47;41;
77699;PMS5003;66867;42.658;23.320;2023-05-01T04:09:00;53;45;
77699;PMS5003;66867;42.658;23.320;2023-05-01T04:10:00;53;45;
77699;PMS5003;66867;42.658;23.320;2023-05-01T04:11:00;49;41;
77699;PMS5003;66867;42.658;23.320;2023-05-01T04:12:00;51;43;
77699;PMS5003;66867;42.658;23.320;2023-05-01T04:13:00;51;43;
77699;PMS5003;66867;42.658;23.320;2023-05-01T04:14:00;44;38;
77699;PMS5003;66867;42.658;23.320;2023-05-01T04:15:00;48;40;
77699;PMS5003;66867;42.658;23.320;2023-05-01T04:16:00;49;41;
77699;PMS5003;66867;42.658;23.320;2023-05-01T04:17:00;48;40;
77699;PMS5003;66867;42.658;23.320;2023-05-01T04:18:00;47;40;
77699;PMS5003;66867;42.658;23.320;2023-05-01T04:19:00;45;39;
77699;PMS5003;66867;42.658;23.320;2023-05-01T04:20:00;50;42;
77699;PMS5003;66867;42.658;23.320;2023-05-01T04:21:00;51;43;
77699;PMS5003;66867;42.658;23.320;2023-05-01T04:22:00;46;39;
77699;PMS5003;66867;42.658;23.320;2023-05-01T04:23:00;49;41;
77699;PMS5003;66867;42.658;23.320;2023-05-01T04:24:00;50;41;
77699;PMS5003;66867;42.658;23.320;2023-05-01T04:25:00;52;44;
77699;PMS5003;66867;42.658;23.320;2023-05-01T04:26:00;51;42;
77699;PMS5003;66867;42.658;23.320;2023-05-01T04:27:00;53;44;
77699;PMS5003;66867;42.658;23.320;2023-05-01T04:28:00;52;45;
77699;PMS5003;66867;42.658;23.320;2023-05-01T04:29:00;51;45;
77699;PMS5003;66867;42.658;23.320;2023-05-01T04:30:00;56;47;
77699;PMS5003;66867;42.658;23.320;2023-05-01T04:31:00;53;44;
77699;PMS5003;66867;42.658;23.320;2023-05-01T04:32:00;55;47;
77699;PMS5003;66867;42.658;23.320;2023-05-01T04:33:00;54;46;
77699;PMS5003;66867;42.658;23.320;2023-05-01T04:34:00;53;45;
77699;PMS5003;66867;42.658;23.320;2023-05-01T04:35:00;51;44;
77699;PMS5003;66867;42.658;23.320;2023-05-01T04:36:00;53;44;
77699;PMS5003;66867;42.658;23.320;2023-05-01T04:37:00;53;44;
77699;PMS5003;66867;42.658;23.320;2023-05-01T04:38:00;52;43;
77699;PMS5003;66867;42.658;23.320;2023-05-01T04:39:00;53;46;
77699;PMS5003;66867;42.658;23.320;2023-05-01T04:40:00;50;43;
77699;PMS5003;66867;42.658;23.320;2023-05-01T04:41:00;54;46;
77699;PMS5003;66867;42.658;23.320;2023-05-01T04:42:01;53;44;
77699;PMS5003;66867;42.658;23.320;2023-05-01T04:43:00;54;46;
77699;PMS5003;66867;42.658;23.320;2023-05-01T04:44:00;52;45;
77699;PMS5003;66867;42.658;23.320;2023-05-01T04:45:00;55;47;
77699;PMS5003;66867;42.658;23.320;2023-05-01T04:46:02;53;44;
77699;PMS5003;66867;42.658;23.320;2023-05-01T04:47:01;53;44;
77699;PMS5003;66867;42.658;23.320;2023-05-01T04:48:00;51;43;
77699;PMS5003;66867;42.658;23.320;2023-05-01T04:49:00;53;44;
77699;PMS5003;66867;42.658;23.320;2023-05-01T04:50:00;56;47;
77699;PMS5003;66867;42.658;23.320;2023-05-01T04:51:00;48;41;
77699;PMS5003;66867;42.658;23.320;2023-05-01T04:52:00;53;44;
77699;PMS5003;66867;42.658;23.320;2023-05-01T04:53:00;51;44;
77699;PMS5003;66867;42.658;23.320;2023-05-01T04:54:00;53;44;
77699;PMS5003;66867;42.658;23.320;2023-05-01T04:55:00;51;42;
77699;PMS5003;66867;42.658;23.320;2023-05-01T04:56:00;49;41;
77699;PMS5003;66867;42.658;23.320;2023-05-01T04:57:00;52;44;
77699;PMS5003;66867;42.658;23.320;2023-05-01T04:58:00;55;47;
77699;PMS5003;66867;42.658;23.320;2023-05-01T04:59:00;52;43;
77699;PMS5003;66867;42.658;23.320;2023-05-01T05:00:00;51;44;
77699;PMS5003;66867;42.658;23.320;2023-05-01T05:01:00;48;41;
77699;PMS5003;66867;42.658;23.320;2023-05-01T05:02:00;48;41;
77699;PMS5003;66867;42.658;23.320;2023-05-01T05:03:00;45;39;
77699;PMS5003;66867;42.658;23.320;2023-05-01T05:04:00;52;43;
77699;PMS5003;66867;42.658;23.320;2023-05-01T05:05:00;51;43;
77699;PMS5003;66867;42.658;23.320;2023-05-01T05:06:00;48;42;
77699;PMS5003;66867;42.658;23.320;2023-05-01T05:07:00;52;43;
77699;PMS5003;66867;42.658;23.320;2023-05-01T05:08:00;48;41;
77699;PMS5003;66867;42.658;23.320;2023-05-01T05:09:00;48;42;
77699;PMS5003;66867;42.658;23.320;2023-05-01T05:10:00;44;39;
77699;PMS5003;66867;42.658;23.320;2023-05-01T05:11:00;48;39;
77699;PMS5003;66867;42.658;23.320;2023-05-01T05:12:00;46;39;
77699;PMS5003;66867;42.658;23.320;2023-05-01T05:13:00;45;40;
77699;PMS5003;66867;42.658;23.320;2023-05-01T05:14:00;52;44;
77699;PMS5003;66867;42.658;23.320;2023-05-01T05:15:00;53;44;
77699;PMS5003;66867;42.658;23.320;2023-05-01T05:16:00;51;42;
77699;PMS5003;66867;42.658;23.320;2023-05-01T05:17:00;51;44;
77699;PMS5003;66867;42.658;23.320;2023-05-01T05:18:00;53;46;
77699;PMS5003;66867;42.658;23.320;2023-05-01T05:19:00;51;44;
77699;PMS5003;66867;42.658;23.320;2023-05-01T05:20:00;48;41;
77699;PMS5003;66867;42.658;23.320;2023-05-01T05:21:02;48;41;
77699;PMS5003;66867;42.658;23.320;2023-05-01T05:22:02;46;40;
77699;PMS5003;66867;42.658;23.320;2023-05-01T05:23:00;47;40;
77699;PMS5003;66867;42.658;23.320;2023-05-01T05:24:00;45;38;
77699;PMS5003;66867;42.658;23.320;2023-05-01T05:25:00;48;39;
77699;PMS5003;66867;42.658;23.320;2023-05-01T05:26:00;44;38;
77699;PMS5003;66867;42.658;23.320;2023-05-01T05:27:00;47;40;
77699;PMS5003;66867;42.658;23.320;2023-05-01T05:28:00;49;41;
77699;PMS5003;66867;42.658;23.320;2023-05-01T05:29:00;49;40;
77699;PMS5003;66867;42.658;23.320;2023-05-01T05:30:00;62;51;
77699;PMS5003;66867;42.658;23.320;2023-05-01T05:31:00;48;40;
77699;PMS5003;66867;42.658;23.320;2023-05-01T05:32:00;42;37;
77699;PMS5003;66867;42.658;23.320;2023-05-01T05:33:00;41;37;
77699;PMS5003;66867;42.658;23.320;2023-05-01T05:34:00;44;39;
77699;PMS5003;66867;42.658;23.320;2023-05-01T05:35:00;45;39;
77699;PMS5003;66867;42.658;23.320;2023-05-01T05:36:00;42;37;
77699;PMS5003;66867;42.658;23.320;2023-05-01T05:37:00;55;46;
77699;PMS5003;66867;42.658;23.320;2023-05-01T05:38:00;53;45;
77699;PMS5003;66867;42.658;23.320;2023-05-01T05:39:00;39;36;
77699;PMS5003;66867;42.658;23.320;2023-05-01T05:40:00;41;37;
77699;PMS5003;66867;42.658;23.320;2023-05-01T05:41:00;40;37;
77699;PMS5003;66867;42.658;23.320;2023-05-01T05:42:00;43;38;
77699;PMS5003;66867;42.658;23.320;2023-05-01T05:43:00;47;38;
77699;PMS5003;66867;42.658;23.320;2023-05-01T05:44:00;40;36;
77699;PMS5003;66867;42.658;23.320;2023-05-01T05:45:00;40;37;
77699;PMS5003;66867;42.658;23.320;2023-05-01T05:46:00;34;33;
77699;PMS5003;66867;42.658;23.320;2023-05-01T05:47:00;33;32;
77699;PMS5003;66867;42.658;23.320;2023-05-01T05:48:00;37;33;
77699;PMS5003;66867;42.658;23.320;2023-05-01T05:49:00;36;33;
77699;PMS5003;66867;42.658;23.320;2023-05-01T05:50:00;35;32;
77699;PMS5003;66867;42.658;23.320;2023-05-01T05:51:00;41;36;
77699;PMS5003;66867;42.658;23.320;2023-05-01T05:52:00;40;36;
77699;PMS5003;66867;42.658;23.320;2023-05-01T05:53:00;39;34;
77699;PMS5003;66867;42.658;23.320;2023-05-01T05:54:00;39;34;
77699;PMS5003;66867;42.658;23.320;2023-05-01T05:55:00;41;36;
77699;PMS5003;66867;42.658;23.320;2023-05-01T05:56:00;36;33;
77699;PMS5003;66867;42.658;23.320;2023-05-01T05:57:00;37;34;
77699;PMS5003;66867;42.658;23.320;2023-05-01T05:58:00;36;34;
77699;PMS5003;66867;42.658;23.320;2023-05-01T05:59:00;36;34;
77699;PMS5003;66867;42.658;23.320;2023-05-01T06:00:00;38;34;
77699;PMS5003;66867;42.658;23.320;2023-05-01T06:01:00;36;33;
77699;PMS5003;66867;42.658;23.320;2023-05-01T06:02:00;36;33;
77699;PMS5003;66867;42.658;23.320;2023-05-01T06:03:00;39;36;
77699;PMS5003;66867;42.658;23.320;2023-05-01T06:04:00;35;32;
77699;PMS5003;66867;42.658;23.320;2023-05-01T06:05:00;41;37;
77699;PMS5003;66867;42.658;23.320;2023-05-01T06:06:00;41;36;
77699;PMS5003;66867;42.658;23.320;2023-05-01T06:07:00;40;36;
77699;PMS5003;66867;42.658;23.320;2023-05-01T06:08:00;35;33;
77699;PMS5003;66867;42.658;23.320;2023-05-01T06:09:00;46;39;
77699;PMS5003;66867;42.658;23.320;2023-05-01T06:10:00;46;39;
77699;PMS5003;66867;42.658;23.320;2023-05-01T06:11:00;39;35;
77699;PMS5003;66867;42.658;23.320;2023-05-01T06:12:00;42;36;
77699;PMS5003;66867;42.658;23.320;2023-05-01T06:13:00;42;36;
77699;PMS5003;66867;42.658;23.320;2023-05-01T06:14:00;59;49;
77699;PMS5003;66867;42.658;23.320;2023-05-01T06:15:00;50;42;
77699;PMS5003;66867;42.658;23.320;2023-05-01T06:16:00;47;40;
77699;PMS5003;66867;42.658;23.320;2023-05-01T06:17:00;47;40;
77699;PMS5003;66867;42.658;23.320;2023-05-01T06:18:00;33;32;
77699;PMS5003;66867;42.658;23.320;2023-05-01T06:19:00;37;33;
77699;PMS5003;66867;42.658;23.320;2023-05-01T06:20:00;37;33;
77699;PMS5003;66867;42.658;23.320;2023-05-01T06:21:00;36;33;
77699;PMS5003;66867;42.658;23.320;2023-05-01T06:22:00;39;36;
77699;PMS5003;66867;42.658;23.320;2023-05-01T06:23:00;43;38;
77699;PMS5003;66867;42.658;23.320;2023-05-01T07:03:00;29;28;
77699;PMS5003;66867;42.658;23.320;2023-05-01T07:04:00;32;30;
77699;PMS5003;66867;42.658;23.320;2023-05-01T07:05:00;37;34;
77699;PMS5003;66867;42.658;23.320;2023-05-01T07:06:00;37;34;
77699;PMS5003;66867;42.658;23.320;2023-05-01T07:07:00;32;30;
77699;PMS5003;66867;42.658;23.320;2023-05-01T07:08:00;30;30;
77699;PMS5003;66867;42.658;23.320;2023-05-01T07:09:00;31;30;
77699;PMS5003;66867;42.658;23.320;2023-05-01T07:10:00;30;30;
77699;PMS5003;66867;42.658;23.320;2023-05-01T07:11:00;30;30;
77699;PMS5003;66867;42.658;23.320;2023-05-01T07:12:00;32;31;
77699;PMS5003;66867;42.658;23.320;2023-05-01T07:13:00;31;30;
77699;PMS5003;66867;42.658;23.320;2023-05-01T07:14:00;30;29;
77699;PMS5003;66867;42.658;23.320;2023-05-01T07:15:00;29;29;
77699;PMS5003;66867;42.658;23.320;2023-05-01T07:16:00;26;25;
77699;PMS5003;66867;42.658;23.320;2023-05-01T07:17:00;32;30;
77699;PMS5003;66867;42.658;23.320;2023-05-01T07:18:00;29;28;
77699;PMS5003;66867;42.658;23.320;2023-05-01T07:19:00;29;29;
77699;PMS5003;66867;42.658;23.320;2023-05-01T07:20:00;27;26;
77699;PMS5003;66867;42.658;23.320;2023-05-01T07:21:00;27;27;
77699;PMS5003;66867;42.658;23.320;2023-05-01T07:22:00;29;28;
77699;PMS5003;66867;42.658;23.320;2023-05-01T07:23:00;33;32;
77699;PMS5003;66867;42.658;23.320;2023-05-01T07:24:00;49;42;
77699;PMS5003;66867;42.658;23.320;2023-05-01T07:25:00;37;34;
77699;PMS5003;66867;42.658;23.320;2023-05-01T07:26:00;37;34;